sensor_id;sensor_type;location;lat;lon;timestamp;pressure;altitude;pressure_sealevel;temperature;humidity
11880;BME280;5999;43.256;27.816;2022-08-16T00:00:30;99442.41;;;23.17;100.00
11880;BME280;5999;43.256;27.816;2022-08-16T00:03:00;99448.66;;;23.17;100.00
11880;BME280;5999;43.256;27.816;2022-08-16T00:05:28;99448.16;;;23.14;100.00
11880;BME280;5999;43.256;27.816;2022-08-16T00:07:55;99448.81;;;23.16;100.00
11880;BME280;5999;43.256;27.816;2022-08-16T00:10:27;99451.50;;;23.16;100.00
11880;BME280;5999;43.256;27.816;2022-08-16T00:12:55;99450.16;;;23.12;100.00
11880;BME280;5999;43.256;27.816;2022-08-16T00:15:25;99455.19;;;23.15;100.00
11880;BME280;5999;43.256;27.816;2022-08-16T00:17:53;99458.22;;;23.12;100.00
11880;BME280;5999;43.256;27.816;2022-08-16T00:20:20;99469.47;;;23.07;100.00
11880;BME280;5999;43.256;27.816;2022-08-16T00:22:47;99481.31;;;21.96;100.00
11880;BME280;5999;43.256;27.816;2022-08-16T00:25:16;99475.63;;;21.57;100.00
11880;BME280;5999;43.256;27.816;2022-08-16T00:27:44;99474.03;;;21.64;100.00
11880;BME280;5999;43.256;27.816;2022-08-16T00:30:13;99480.81;;;21.84;100.00
11880;BME280;5999;43.256;27.816;2022-08-16T00:32:43;99474.44;;;21.85;100.00
11880;BME280;5999;43.256;27.816;2022-08-16T00:35:17;99473.13;;;21.98;100.00
11880;BME280;5999;43.256;27.816;2022-08-16T00:37:45;99475.53;;;22.09;100.00
11880;BME280;5999;43.256;27.816;2022-08-16T00:40:15;99469.50;;;22.15;100.00
11880;BME280;5999;43.256;27.816;2022-08-16T00:42:43;99467.81;;;22.14;100.00
11880;BME280;5999;43.256;27.816;2022-08-16T00:45:21;99463.50;;;22.21;100.00
11880;BME280;5999;43.256;27.816;2022-08-16T00:47:49;99462.53;;;22.31;100.00
11880;BME280;5999;43.256;27.816;2022-08-16T00:50:18;99467.91;;;22.39;100.00
11880;BME280;5999;43.256;27.816;2022-08-16T00:52:45;99468.91;;;22.38;100.00
11880;BME280;5999;43.256;27.816;2022-08-16T00:55:12;99470.44;;;22.40;100.00
11880;BME280;5999;43.256;27.816;2022-08-16T00:57:39;99476.31;;;22.44;100.00
11880;BME280;5999;43.256;27.816;2022-08-16T01:00:08;99476.63;;;22.49;100.00
11880;BME280;5999;43.256;27.816;2022-08-16T01:02:35;99484.53;;;22.51;100.00
11880;BME280;5999;43.256;27.816;2022-08-16T01:05:02;99484.38;;;22.52;100.00
11880;BME280;5999;43.256;27.816;2022-08-16T01:07:30;99485.19;;;22.53;100.00
11880;BME280;5999;43.256;27.816;2022-08-16T01:09:57;99486.69;;;22.55;100.00
11880;BME280;5999;43.256;27.816;2022-08-16T01:12:24;99485.03;;;22.54;100.00
11880;BME280;5999;43.256;27.816;2022-08-16T01:14:54;99483.88;;;22.57;100.00
11880;BME280;5999;43.256;27.816;2022-08-16T01:17:23;99473.66;;;22.60;100.00
11880;BME280;5999;43.256;27.816;2022-08-16T01:19:54;99472.31;;;22.64;100.00
11880;BME280;5999;43.256;27.816;2022-08-16T01:22:27;99480.00;;;22.67;100.00
11880;BME280;5999;43.256;27.816;2022-08-16T01:25:00;99474.31;;;22.71;100.00
11880;BME280;5999;43.256;27.816;2022-08-16T01:27:31;99479.34;;;22.74;100.00
11880;BME280;5999;43.256;27.816;2022-08-16T01:30:03;99481.03;;;22.75;100.00
11880;BME280;5999;43.256;27.816;2022-08-16T01:32:33;99481.53;;;22.70;100.00
11880;BME280;5999;43.256;27.816;2022-08-16T01:35:03;99476.19;;;22.70;100.00
11880;BME280;5999;43.256;27.816;2022-08-16T01:37:38;99480.69;;;22.61;100.00
11880;BME280;5999;43.256;27.816;2022-08-16T01:40:07;99484.38;;;22.60;100.00
11880;BME280;5999;43.256;27.816;2022-08-16T01:42:34;99491.09;;;22.64;100.00
11880;BME280;5999;43.256;27.816;2022-08-16T01:45:02;99485.72;;;22.56;100.00
11880;BME280;5999;43.256;27.816;2022-08-16T01:47:30;99475.66;;;22.58;100.00
11880;BME280;5999;43.256;27.816;2022-08-16T01:49:58;99465.75;;;22.59;100.00
11880;BME280;5999;43.256;27.816;2022-08-16T01:52:25;99469.63;;;22.64;100.00
11880;BME280;5999;43.256;27.816;2022-08-16T01:54:52;99478.50;;;22.65;100.00
11880;BME280;5999;43.256;27.816;2022-08-16T01:57:20;99471.28;;;22.65;100.00
11880;BME280;5999;43.256;27.816;2022-08-16T01:59:47;99469.63;;;22.64;100.00
11880;BME280;5999;43.256;27.816;2022-08-16T02:02:14;99467.25;;;22.61;100.00
11880;BME280;5999;43.256;27.816;2022-08-16T02:04:41;99468.13;;;22.62;100.00
11880;BME280;5999;43.256;27.816;2022-08-16T02:07:08;99464.56;;;22.61;100.00
11880;BME280;5999;43.256;27.816;2022-08-16T02:09:37;99458.22;;;22.62;100.00
11880;BME280;5999;43.256;27.816;2022-08-16T02:12:06;99462.91;;;22.60;100.00
11880;BME280;5999;43.256;27.816;2022-08-16T02:14:35;99462.19;;;22.25;100.00
11880;BME280;5999;43.256;27.816;2022-08-16T02:17:06;99471.19;;;22.16;100.00
11880;BME280;5999;43.256;27.816;2022-08-16T02:19:34;99470.00;;;22.19;100.00
11880;BME280;5999;43.256;27.816;2022-08-16T02:22:02;99474.03;;;22.23;100.00
11880;BME280;5999;43.256;27.816;2022-08-16T02:24:30;99473.06;;;21.81;100.00
11880;BME280;5999;43.256;27.816;2022-08-16T02:26:57;99470.72;;;21.78;100.00
11880;BME280;5999;43.256;27.816;2022-08-16T02:29:24;99471.09;;;21.92;100.00
11880;BME280;5999;43.256;27.816;2022-08-16T02:31:51;99466.34;;;21.77;100.00
11880;BME280;5999;43.256;27.816;2022-08-16T02:34:19;99483.91;;;21.72;100.00
11880;BME280;5999;43.256;27.816;2022-08-16T02:36:47;99484.84;;;21.89;100.00
11880;BME280;5999;43.256;27.816;2022-08-16T02:39:15;99474.81;;;21.99;100.00
11880;BME280;5999;43.256;27.816;2022-08-16T02:41:44;99479.44;;;21.80;100.00
11880;BME280;5999;43.256;27.816;2022-08-16T02:44:12;99478.34;;;21.65;100.00
11880;BME280;5999;43.256;27.816;2022-08-16T02:46:39;99486.84;;;21.86;100.00
11880;BME280;5999;43.256;27.816;2022-08-16T02:49:07;99479.47;;;21.89;100.00
11880;BME280;5999;43.256;27.816;2022-08-16T02:51:35;99489.22;;;21.98;100.00
11880;BME280;5999;43.256;27.816;2022-08-16T02:54:03;99489.25;;;22.06;100.00
11880;BME280;5999;43.256;27.816;2022-08-16T02:56:30;99485.91;;;22.12;100.00
11880;BME280;5999;43.256;27.816;2022-08-16T02:58:57;99486.75;;;22.13;100.00
11880;BME280;5999;43.256;27.816;2022-08-16T03:01:27;99495.00;;;22.19;100.00
11880;BME280;5999;43.256;27.816;2022-08-16T03:03:56;99489.94;;;22.16;100.00
11880;BME280;5999;43.256;27.816;2022-08-16T03:06:26;99484.34;;;21.93;100.00
11880;BME280;5999;43.256;27.816;2022-08-16T03:08:53;99485.59;;;22.15;100.00
11880;BME280;5999;43.256;27.816;2022-08-16T03:11:21;99484.44;;;22.18;100.00
11880;BME280;5999;43.256;27.816;2022-08-16T03:13:50;99490.47;;;22.20;100.00
11880;BME280;5999;43.256;27.816;2022-08-16T03:16:19;99491.69;;;22.25;100.00
11880;BME280;5999;43.256;27.816;2022-08-16T03:18:46;99487.00;;;22.27;100.00
11880;BME280;5999;43.256;27.816;2022-08-16T03:21:13;99483.47;;;22.27;100.00
11880;BME280;5999;43.256;27.816;2022-08-16T03:23:41;99483.66;;;22.34;100.00
11880;BME280;5999;43.256;27.816;2022-08-16T03:26:08;99483.00;;;22.32;100.00
11880;BME280;5999;43.256;27.816;2022-08-16T03:28:35;99489.03;;;22.34;100.00
11880;BME280;5999;43.256;27.816;2022-08-16T03:31:02;99483.16;;;22.38;100.00
11880;BME280;5999;43.256;27.816;2022-08-16T03:33:29;99483.00;;;22.40;100.00
11880;BME280;5999;43.256;27.816;2022-08-16T03:35:56;99485.69;;;22.40;100.00
11880;BME280;5999;43.256;27.816;2022-08-16T03:38:26;99484.66;;;22.41;100.00
11880;BME280;5999;43.256;27.816;2022-08-16T03:40:54;99487.72;;;22.46;100.00
11880;BME280;5999;43.256;27.816;2022-08-16T03:43:21;99486.22;;;22.52;100.00
11880;BME280;5999;43.256;27.816;2022-08-16T03:45:51;99484.22;;;22.54;100.00
11880;BME280;5999;43.256;27.816;2022-08-16T03:48:18;99487.72;;;22.46;100.00
11880;BME280;5999;43.256;27.816;2022-08-16T03:50:45;99492.59;;;22.59;100.00
11880;BME280;5999;43.256;27.816;2022-08-16T03:53:12;99488.38;;;22.48;100.00
11880;BME280;5999;43.256;27.816;2022-08-16T03:55:39;99491.25;;;22.55;100.00
11880;BME280;5999;43.256;27.816;2022-08-16T03:58:07;99497.97;;;22.67;100.00
11880;BME280;5999;43.256;27.816;2022-08-16T04:00:34;99499.66;;;22.68;100.00
11880;BME280;5999;43.256;27.816;2022-08-16T04:03:04;99500.81;;;22.74;100.00
11880;BME280;5999;43.256;27.816;2022-08-16T04:05:33;99504.69;;;22.79;100.00
11880;BME280;5999;43.256;27.816;2022-08-16T04:08:01;99509.53;;;22.67;100.00
11880;BME280;5999;43.256;27.816;2022-08-16T04:10:28;99509.72;;;22.82;100.00
11880;BME280;5999;43.256;27.816;2022-08-16T04:12:56;99511.22;;;22.93;100.00
11880;BME280;5999;43.256;27.816;2022-08-16T04:15:25;99506.22;;;23.06;100.00
11880;BME280;5999;43.256;27.816;2022-08-16T04:17:54;99506.56;;;23.03;100.00
11880;BME280;5999;43.256;27.816;2022-08-16T04:20:24;99502.31;;;22.52;100.00
11880;BME280;5999;43.256;27.816;2022-08-16T04:22:51;99502.06;;;22.29;100.00
11880;BME280;5999;43.256;27.816;2022-08-16T04:25:19;99508.66;;;22.51;100.00
11880;BME280;5999;43.256;27.816;2022-08-16T04:27:46;99514.72;;;22.53;100.00
11880;BME280;5999;43.256;27.816;2022-08-16T04:30:19;99514.03;;;22.42;100.00
11880;BME280;5999;43.256;27.816;2022-08-16T04:32:50;99525.47;;;22.18;100.00
11880;BME280;5999;43.256;27.816;2022-08-16T04:35:20;99529.00;;;22.19;100.00
11880;BME280;5999;43.256;27.816;2022-08-16T04:37:49;99526.38;;;22.27;100.00
11880;BME280;5999;43.256;27.816;2022-08-16T04:40:18;99528.28;;;22.51;100.00
11880;BME280;5999;43.256;27.816;2022-08-16T04:42:46;99522.25;;;22.65;100.00
11880;BME280;5999;43.256;27.816;2022-08-16T04:45:14;99521.97;;;22.93;100.00
11880;BME280;5999;43.256;27.816;2022-08-16T04:47:41;99520.66;;;23.14;100.00
11880;BME280;5999;43.256;27.816;2022-08-16T04:50:15;99519.13;;;23.27;100.00
11880;BME280;5999;43.256;27.816;2022-08-16T04:52:44;99507.72;;;23.34;100.00
11880;BME280;5999;43.256;27.816;2022-08-16T04:55:15;99510.56;;;23.32;100.00
11880;BME280;5999;43.256;27.816;2022-08-16T04:57:43;99521.31;;;23.32;100.00
11880;BME280;5999;43.256;27.816;2022-08-16T05:00:12;99521.13;;;22.76;100.00
11880;BME280;5999;43.256;27.816;2022-08-16T05:02:41;99514.63;;;23.12;100.00
11880;BME280;5999;43.256;27.816;2022-08-16T05:05:09;99512.44;;;23.07;100.00
11880;BME280;5999;43.256;27.816;2022-08-16T05:07:38;99517.09;;;22.97;100.00
11880;BME280;5999;43.256;27.816;2022-08-16T05:10:06;99523.47;;;22.96;100.00
11880;BME280;5999;43.256;27.816;2022-08-16T05:12:34;99522.63;;;22.87;100.00
11880;BME280;5999;43.256;27.816;2022-08-16T05:15:01;99513.91;;;22.85;100.00
11880;BME280;5999;43.256;27.816;2022-08-16T05:17:28;99511.22;;;23.42;100.00
11880;BME280;5999;43.256;27.816;2022-08-16T05:19:57;99506.94;;;23.73;100.00
11880;BME280;5999;43.256;27.816;2022-08-16T05:22:24;99512.84;;;24.16;100.00
11880;BME280;5999;43.256;27.816;2022-08-16T05:24:51;99513.63;;;24.56;100.00
11880;BME280;5999;43.256;27.816;2022-08-16T05:27:19;99510.13;;;24.47;100.00
11880;BME280;5999;43.256;27.816;2022-08-16T05:29:46;99511.34;;;24.13;100.00
11880;BME280;5999;43.256;27.816;2022-08-16T05:32:13;99500.25;;;24.08;100.00
11880;BME280;5999;43.256;27.816;2022-08-16T05:34:39;99501.28;;;24.38;100.00
11880;BME280;5999;43.256;27.816;2022-08-16T05:37:06;99502.19;;;24.85;100.00
11880;BME280;5999;43.256;27.816;2022-08-16T05:39:33;99509.13;;;25.40;100.00
11880;BME280;5999;43.256;27.816;2022-08-16T05:42:01;99503.25;;;25.52;100.00
11880;BME280;5999;43.256;27.816;2022-08-16T05:44:28;99507.06;;;25.57;100.00
11880;BME280;5999;43.256;27.816;2022-08-16T05:46:57;99509.75;;;25.72;100.00
11880;BME280;5999;43.256;27.816;2022-08-16T05:49:25;99505.50;;;26.59;100.00
11880;BME280;5999;43.256;27.816;2022-08-16T05:51:52;99511.09;;;26.79;100.00
11880;BME280;5999;43.256;27.816;2022-08-16T05:54:21;99507.72;;;25.74;100.00
11880;BME280;5999;43.256;27.816;2022-08-16T05:56:48;99509.19;;;26.21;100.00
11880;BME280;5999;43.256;27.816;2022-08-16T05:59:17;99509.94;;;26.52;100.00
11880;BME280;5999;43.256;27.816;2022-08-16T06:01:44;99516.16;;;26.31;100.00
11880;BME280;5999;43.256;27.816;2022-08-16T06:04:13;99514.38;;;26.38;100.00
11880;BME280;5999;43.256;27.816;2022-08-16T06:06:40;99518.97;;;26.22;100.00
11880;BME280;5999;43.256;27.816;2022-08-16T06:09:08;99517.38;;;26.28;100.00
11880;BME280;5999;43.256;27.816;2022-08-16T06:11:35;99515.69;;;27.06;100.00
11880;BME280;5999;43.256;27.816;2022-08-16T06:14:02;99513.66;;;27.15;100.00
11880;BME280;5999;43.256;27.816;2022-08-16T06:16:30;99506.94;;;26.40;100.00
11880;BME280;5999;43.256;27.816;2022-08-16T06:18:57;99516.97;;;27.32;100.00
11880;BME280;5999;43.256;27.816;2022-08-16T06:21:25;99511.75;;;27.59;100.00
11880;BME280;5999;43.256;27.816;2022-08-16T06:23:52;99514.66;;;27.29;100.00
11880;BME280;5999;43.256;27.816;2022-08-16T06:26:20;99505.59;;;28.13;100.00
11880;BME280;5999;43.256;27.816;2022-08-16T06:28:47;99505.84;;;28.32;100.00
11880;BME280;5999;43.256;27.816;2022-08-16T06:31:15;99506.78;;;28.52;100.00
11880;BME280;5999;43.256;27.816;2022-08-16T06:33:43;99506.50;;;27.51;100.00
11880;BME280;5999;43.256;27.816;2022-08-16T06:36:11;99515.94;;;27.12;100.00
11880;BME280;5999;43.256;27.816;2022-08-16T06:38:38;99512.22;;;27.69;100.00
11880;BME280;5999;43.256;27.816;2022-08-16T06:41:07;99514.47;;;27.94;100.00
11880;BME280;5999;43.256;27.816;2022-08-16T06:43:35;99511.91;;;28.34;100.00
11880;BME280;5999;43.256;27.816;2022-08-16T06:46:05;99521.41;;;28.71;100.00
11880;BME280;5999;43.256;27.816;2022-08-16T06:48:35;99517.47;;;28.87;100.00
11880;BME280;5999;43.256;27.816;2022-08-16T06:51:03;99511.72;;;28.42;100.00
11880;BME280;5999;43.256;27.816;2022-08-16T06:53:31;99505.75;;;28.53;100.00
11880;BME280;5999;43.256;27.816;2022-08-16T06:55:59;99507.66;;;29.59;100.00
11880;BME280;5999;43.256;27.816;2022-08-16T06:58:29;99509.66;;;30.04;100.00
11880;BME280;5999;43.256;27.816;2022-08-16T07:00:56;99501.19;;;29.60;100.00
11880;BME280;5999;43.256;27.816;2022-08-16T07:03:23;99513.56;;;30.60;96.75
11880;BME280;5999;43.256;27.816;2022-08-16T07:05:49;99515.00;;;30.62;90.51
11880;BME280;5999;43.256;27.816;2022-08-16T07:08:18;99512.88;;;30.33;90.54
11880;BME280;5999;43.256;27.816;2022-08-16T07:10:45;99509.19;;;30.59;89.55
11880;BME280;5999;43.256;27.816;2022-08-16T07:13:11;99506.47;;;29.22;95.67
11880;BME280;5999;43.256;27.816;2022-08-16T07:15:38;99507.06;;;30.22;95.19
11880;BME280;5999;43.256;27.816;2022-08-16T07:18:06;99503.44;;;29.70;94.15
11880;BME280;5999;43.256;27.816;2022-08-16T07:20:33;99516.78;;;29.92;95.72
11880;BME280;5999;43.256;27.816;2022-08-16T07:23:00;99514.75;;;30.25;91.66
11880;BME280;5999;43.256;27.816;2022-08-16T07:25:28;99516.63;;;30.32;94.15
11880;BME280;5999;43.256;27.816;2022-08-16T07:27:55;99507.97;;;31.12;86.82
11880;BME280;5999;43.256;27.816;2022-08-16T07:30:22;99520.06;;;31.16;84.74
11880;BME280;5999;43.256;27.816;2022-08-16T07:32:49;99506.38;;;30.72;86.76
11880;BME280;5999;43.256;27.816;2022-08-16T07:35:17;99504.03;;;31.08;82.47
11880;BME280;5999;43.256;27.816;2022-08-16T07:37:44;99496.63;;;31.65;81.91
11880;BME280;5999;43.256;27.816;2022-08-16T07:40:12;99506.00;;;31.69;78.39
11880;BME280;5999;43.256;27.816;2022-08-16T07:42:39;99494.53;;;31.42;78.29
11880;BME280;5999;43.256;27.816;2022-08-16T07:45:07;99504.25;;;31.31;82.00
11880;BME280;5999;43.256;27.816;2022-08-16T07:47:35;99500.41;;;31.82;77.61
11880;BME280;5999;43.256;27.816;2022-08-16T07:50:02;99500.13;;;32.39;74.31
11880;BME280;5999;43.256;27.816;2022-08-16T07:52:30;99502.50;;;31.80;72.63
11880;BME280;5999;43.256;27.816;2022-08-16T07:54:57;99494.22;;;32.12;74.30
11880;BME280;5999;43.256;27.816;2022-08-16T07:57:24;99481.81;;;31.79;76.86
11880;BME280;5999;43.256;27.816;2022-08-16T07:59:51;99493.59;;;31.92;73.43
11880;BME280;5999;43.256;27.816;2022-08-16T08:02:18;99496.03;;;32.18;72.00
11880;BME280;5999;43.256;27.816;2022-08-16T08:04:45;99490.38;;;33.04;67.81
11880;BME280;5999;43.256;27.816;2022-08-16T08:07:12;99492.31;;;32.61;66.68
11880;BME280;5999;43.256;27.816;2022-08-16T08:09:39;99489.56;;;32.73;67.87
11880;BME280;5999;43.256;27.816;2022-08-16T08:12:06;99501.19;;;32.69;66.88
11880;BME280;5999;43.256;27.816;2022-08-16T08:14:33;99503.44;;;33.14;61.91
11880;BME280;5999;43.256;27.816;2022-08-16T08:17:01;99511.69;;;34.01;55.48
11880;BME280;5999;43.256;27.816;2022-08-16T08:19:32;99500.94;;;34.52;57.90
11880;BME280;5999;43.256;27.816;2022-08-16T08:21:59;99498.66;;;34.32;60.34
11880;BME280;5999;43.256;27.816;2022-08-16T08:24:26;99510.50;;;35.29;52.96
11880;BME280;5999;43.256;27.816;2022-08-16T08:26:53;99491.50;;;35.39;49.01
11880;BME280;5999;43.256;27.816;2022-08-16T08:29:21;99501.84;;;35.04;47.90
11880;BME280;5999;43.256;27.816;2022-08-16T08:31:48;99498.72;;;34.20;52.07
11880;BME280;5999;43.256;27.816;2022-08-16T08:34:15;99497.56;;;35.25;53.91
11880;BME280;5999;43.256;27.816;2022-08-16T08:36:42;99495.19;;;35.67;50.00
11880;BME280;5999;43.256;27.816;2022-08-16T08:39:09;99496.38;;;34.70;50.88
11880;BME280;5999;43.256;27.816;2022-08-16T08:41:36;99502.59;;;34.82;55.02
11880;BME280;5999;43.256;27.816;2022-08-16T08:44:03;99490.25;;;34.96;51.91
11880;BME280;5999;43.256;27.816;2022-08-16T08:46:30;99499.56;;;34.09;54.99
11880;BME280;5999;43.256;27.816;2022-08-16T08:48:58;99502.16;;;34.73;54.40
11880;BME280;5999;43.256;27.816;2022-08-16T08:51:25;99502.78;;;35.82;49.50
11880;BME280;5999;43.256;27.816;2022-08-16T08:53:53;99487.91;;;36.00;44.79
11880;BME280;5999;43.256;27.816;2022-08-16T08:56:20;99503.28;;;34.60;47.14
11880;BME280;5999;43.256;27.816;2022-08-16T08:58:47;99496.13;;;34.42;51.26
11880;BME280;5999;43.256;27.816;2022-08-16T09:01:17;99488.00;;;35.44;47.42
11880;BME280;5999;43.256;27.816;2022-08-16T09:03:45;99487.31;;;36.42;45.81
11880;BME280;5999;43.256;27.816;2022-08-16T09:06:12;99482.50;;;36.27;42.65
11880;BME280;5999;43.256;27.816;2022-08-16T09:08:40;99483.03;;;36.78;41.97
11880;BME280;5999;43.256;27.816;2022-08-16T09:11:09;99477.06;;;36.32;41.55
11880;BME280;5999;43.256;27.816;2022-08-16T09:13:36;99493.38;;;35.56;43.40
11880;BME280;5999;43.256;27.816;2022-08-16T09:16:03;99477.16;;;35.93;42.24
11880;BME280;5999;43.256;27.816;2022-08-16T09:18:30;99478.63;;;35.06;41.33
11880;BME280;5999;43.256;27.816;2022-08-16T09:20:57;99475.53;;;33.82;43.15
11880;BME280;5999;43.256;27.816;2022-08-16T09:23:26;99475.00;;;35.00;43.68
11880;BME280;5999;43.256;27.816;2022-08-16T09:25:54;99466.56;;;36.02;42.18
11880;BME280;5999;43.256;27.816;2022-08-16T09:28:21;99462.88;;;36.68;40.40
11880;BME280;5999;43.256;27.816;2022-08-16T09:30:48;99469.34;;;36.84;39.18
11880;BME280;5999;43.256;27.816;2022-08-16T09:33:16;99468.63;;;37.78;39.46
11880;BME280;5999;43.256;27.816;2022-08-16T09:35:44;99477.84;;;38.20;37.74
11880;BME280;5999;43.256;27.816;2022-08-16T09:38:12;99466.34;;;37.65;36.33
11880;BME280;5999;43.256;27.816;2022-08-16T09:40:40;99468.06;;;37.82;37.42
11880;BME280;5999;43.256;27.816;2022-08-16T09:43:08;99464.38;;;38.24;36.57
11880;BME280;5999;43.256;27.816;2022-08-16T09:45:36;99466.94;;;38.56;36.70
11880;BME280;5999;43.256;27.816;2022-08-16T09:48:07;99464.19;;;39.12;33.58
11880;BME280;5999;43.256;27.816;2022-08-16T09:50:34;99469.47;;;37.89;36.14
11880;BME280;5999;43.256;27.816;2022-08-16T09:53:02;99459.81;;;37.76;34.59
11880;BME280;5999;43.256;27.816;2022-08-16T09:55:30;99469.94;;;35.65;37.22
11880;BME280;5999;43.256;27.816;2022-08-16T09:57:57;99453.63;;;36.47;36.66
11880;BME280;5999;43.256;27.816;2022-08-16T10:00:25;99455.66;;;35.63;39.13
11880;BME280;5999;43.256;27.816;2022-08-16T10:02:52;99466.72;;;35.29;42.49
11880;BME280;5999;43.256;27.816;2022-08-16T10:05:19;99468.03;;;35.10;42.58
11880;BME280;5999;43.256;27.816;2022-08-16T10:07:47;99455.09;;;35.05;41.89
11880;BME280;5999;43.256;27.816;2022-08-16T10:10:17;99447.28;;;35.14;42.19
11880;BME280;5999;43.256;27.816;2022-08-16T10:12:45;99457.19;;;35.54;41.38
11880;BME280;5999;43.256;27.816;2022-08-16T10:15:31;99444.56;;;35.53;41.76
11880;BME280;5999;43.256;27.816;2022-08-16T10:17:59;99463.56;;;36.53;43.23
11880;BME280;5999;43.256;27.816;2022-08-16T10:20:26;99452.97;;;36.12;43.29
11880;BME280;5999;43.256;27.816;2022-08-16T10:22:53;99464.38;;;36.53;42.55
11880;BME280;5999;43.256;27.816;2022-08-16T10:25:21;99457.66;;;36.39;42.68
11880;BME280;5999;43.256;27.816;2022-08-16T10:27:48;99460.28;;;36.83;41.28
11880;BME280;5999;43.256;27.816;2022-08-16T10:30:17;99456.16;;;37.61;40.94
11880;BME280;5999;43.256;27.816;2022-08-16T10:32:45;99464.81;;;36.40;41.52
11880;BME280;5999;43.256;27.816;2022-08-16T10:35:12;99463.28;;;37.14;39.47
11880;BME280;5999;43.256;27.816;2022-08-16T10:37:39;99457.31;;;36.08;41.35
11880;BME280;5999;43.256;27.816;2022-08-16T10:40:08;99476.50;;;35.64;43.11
11880;BME280;5999;43.256;27.816;2022-08-16T10:42:36;99472.81;;;35.36;42.28
11880;BME280;5999;43.256;27.816;2022-08-16T10:45:03;99476.50;;;34.74;44.01
11880;BME280;5999;43.256;27.816;2022-08-16T10:47:30;99469.03;;;35.04;42.50
11880;BME280;5999;43.256;27.816;2022-08-16T10:49:58;99477.69;;;35.90;41.69
11880;BME280;5999;43.256;27.816;2022-08-16T10:52:25;99468.34;;;36.35;40.53
11880;BME280;5999;43.256;27.816;2022-08-16T10:54:52;99458.16;;;36.09;40.88
11880;BME280;5999;43.256;27.816;2022-08-16T10:57:19;99465.03;;;35.28;43.68
11880;BME280;5999;43.256;27.816;2022-08-16T10:59:46;99464.72;;;36.30;42.26
11880;BME280;5999;43.256;27.816;2022-08-16T11:02:13;99458.19;;;35.87;41.70
11880;BME280;5999;43.256;27.816;2022-08-16T11:04:40;99464.69;;;36.03;41.53
11880;BME280;5999;43.256;27.816;2022-08-16T11:07:09;99466.47;;;35.53;42.24
11880;BME280;5999;43.256;27.816;2022-08-16T11:09:36;99466.78;;;36.17;40.61
11880;BME280;5999;43.256;27.816;2022-08-16T11:12:04;99468.56;;;35.85;43.55
11880;BME280;5999;43.256;27.816;2022-08-16T11:14:32;99456.81;;;36.11;41.52
11880;BME280;5999;43.256;27.816;2022-08-16T11:17:00;99462.66;;;36.15;42.65
11880;BME280;5999;43.256;27.816;2022-08-16T11:19:27;99466.88;;;36.82;42.23
11880;BME280;5999;43.256;27.816;2022-08-16T11:21:55;99454.78;;;37.58;41.14
11880;BME280;5999;43.256;27.816;2022-08-16T11:24:22;99456.22;;;37.23;39.48
11880;BME280;5999;43.256;27.816;2022-08-16T11:26:49;99451.50;;;38.39;39.48
11880;BME280;5999;43.256;27.816;2022-08-16T11:29:18;99452.00;;;39.39;37.41
11880;BME280;5999;43.256;27.816;2022-08-16T11:31:45;99451.63;;;40.31;35.28
11880;BME280;5999;43.256;27.816;2022-08-16T11:34:12;99453.78;;;39.85;34.83
11880;BME280;5999;43.256;27.816;2022-08-16T11:36:39;99448.41;;;39.54;34.93
11880;BME280;5999;43.256;27.816;2022-08-16T11:39:06;99452.28;;;39.32;34.13
11880;BME280;5999;43.256;27.816;2022-08-16T11:41:33;99441.31;;;39.07;34.72
11880;BME280;5999;43.256;27.816;2022-08-16T11:44:04;99448.00;;;39.81;34.45
11880;BME280;5999;43.256;27.816;2022-08-16T11:46:31;99452.44;;;39.72;32.08
11880;BME280;5999;43.256;27.816;2022-08-16T11:49:00;99456.41;;;38.22;34.90
11880;BME280;5999;43.256;27.816;2022-08-16T11:51:27;99436.91;;;39.16;35.42
11880;BME280;5999;43.256;27.816;2022-08-16T11:53:54;99430.44;;;40.22;33.92
11880;BME280;5999;43.256;27.816;2022-08-16T11:56:21;99433.31;;;38.23;34.92
11880;BME280;5999;43.256;27.816;2022-08-16T11:58:49;99439.03;;;38.06;35.77
11880;BME280;5999;43.256;27.816;2022-08-16T12:01:16;99438.38;;;37.78;34.97
11880;BME280;5999;43.256;27.816;2022-08-16T12:03:43;99438.50;;;38.14;35.59
11880;BME280;5999;43.256;27.816;2022-08-16T12:06:12;99437.47;;;38.72;34.01
11880;BME280;5999;43.256;27.816;2022-08-16T12:08:41;99432.13;;;39.57;33.13
11880;BME280;5999;43.256;27.816;2022-08-16T12:11:09;99423.69;;;38.26;34.64
11880;BME280;5999;43.256;27.816;2022-08-16T12:13:36;99423.16;;;39.11;33.40
11880;BME280;5999;43.256;27.816;2022-08-16T12:16:04;99416.97;;;37.81;33.95
11880;BME280;5999;43.256;27.816;2022-08-16T12:18:34;99398.81;;;37.79;35.95
11880;BME280;5999;43.256;27.816;2022-08-16T12:21:01;99430.59;;;39.15;35.54
11880;BME280;5999;43.256;27.816;2022-08-16T12:23:28;99421.84;;;39.78;34.14
11880;BME280;5999;43.256;27.816;2022-08-16T12:25:55;99438.47;;;40.18;33.31
11880;BME280;5999;43.256;27.816;2022-08-16T12:28:23;99432.94;;;39.63;32.66
11880;BME280;5999;43.256;27.816;2022-08-16T12:30:50;99437.34;;;38.00;33.02
11880;BME280;5999;43.256;27.816;2022-08-16T12:33:18;99429.72;;;38.17;34.85
11880;BME280;5999;43.256;27.816;2022-08-16T12:35:47;99433.09;;;38.55;34.13
11880;BME280;5999;43.256;27.816;2022-08-16T12:38:14;99431.59;;;38.02;34.47
11880;BME280;5999;43.256;27.816;2022-08-16T12:40:45;99428.91;;;36.69;35.27
11880;BME280;5999;43.256;27.816;2022-08-16T12:43:15;99433.72;;;36.61;35.59
11880;BME280;5999;43.256;27.816;2022-08-16T12:45:46;99423.44;;;36.74;35.17
11880;BME280;5999;43.256;27.816;2022-08-16T12:48:15;99392.78;;;35.95;36.96
11880;BME280;5999;43.256;27.816;2022-08-16T12:51:03;99430.16;;;36.29;38.53
11880;BME280;5999;43.256;27.816;2022-08-16T12:53:31;99436.66;;;36.50;37.52
11880;BME280;5999;43.256;27.816;2022-08-16T12:56:00;99426.41;;;36.13;42.95
11880;BME280;5999;43.256;27.816;2022-08-16T12:58:27;99424.63;;;36.24;47.52